createdAt,value
2018-12-15T00:01:44.092Z,46.07
2018-12-15T00:04:14.367Z,53.27
2018-12-15T00:06:45.245Z,57.27
2018-12-15T00:09:16.001Z,50.30
2018-12-15T00:11:46.013Z,48.23
2018-12-15T00:14:16.692Z,46.00
2018-12-15T00:16:47.081Z,54.00
2018-12-15T00:19:17.649Z,55.67
2018-12-15T00:21:47.802Z,50.33
2018-12-15T00:24:18.020Z,54.97
2018-12-15T00:26:48.038Z,56.13
2018-12-15T00:29:18.409Z,46.90
2018-12-15T00:31:49.705Z,49.07
2018-12-15T00:34:19.884Z,53.33
2018-12-15T00:36:51.445Z,54.83
2018-12-15T00:39:21.995Z,53.93
2018-12-15T00:41:52.294Z,50.70
2018-12-15T00:44:22.891Z,46.67
2018-12-15T00:46:53.758Z,52.07
2018-12-15T00:49:23.879Z,48.40
2018-12-15T00:51:55.106Z,47.17
2018-12-15T00:54:25.913Z,53.07
2018-12-15T00:56:55.889Z,45.97
2018-12-15T00:59:26.604Z,47.93
2018-12-15T01:01:56.780Z,51.13
2018-12-15T01:04:26.819Z,47.10
2018-12-15T01:06:56.981Z,52.57
2018-12-15T01:09:27.130Z,50.13
2018-12-15T01:11:57.305Z,52.63
2018-12-15T01:14:27.435Z,53.13
2018-12-15T01:16:57.595Z,55.10
2018-12-15T01:19:28.434Z,48.37
2018-12-15T01:21:58.481Z,40.80
2018-12-15T01:24:29.293Z,50.13
2018-12-15T01:26:59.562Z,45.03
2018-12-15T01:29:30.590Z,44.97
2018-12-15T01:32:00.833Z,42.10
2018-12-15T01:34:31.081Z,51.60
2018-12-15T01:37:01.680Z,47.07
2018-12-15T01:39:32.781Z,51.90
2018-12-15T01:42:02.833Z,50.33
2018-12-15T01:44:33.464Z,56.23
2018-12-15T01:47:03.660Z,45.43
2018-12-15T01:49:33.688Z,51.10
2018-12-15T01:52:03.954Z,49.33
2018-12-15T01:54:34.083Z,43.83
2018-12-15T01:57:05.592Z,57.80
2018-12-15T01:59:35.633Z,47.87
2018-12-15T02:02:05.741Z,48.93
2018-12-15T02:04:35.918Z,45.50
2018-12-15T02:07:06.722Z,41.43
2018-12-15T02:09:36.934Z,46.10
2018-12-15T02:12:07.478Z,50.37
2018-12-15T02:14:37.718Z,45.87
2018-12-15T02:17:07.915Z,45.60
2018-12-15T02:19:38.071Z,47.63
2018-12-15T02:22:08.962Z,44.20
2018-12-15T02:24:39.193Z,44.90
2018-12-15T02:27:09.245Z,51.80
2018-12-15T02:29:39.452Z,46.40
2018-12-15T02:32:09.524Z,45.57
2018-12-15T02:34:40.107Z,45.07
2018-12-15T02:37:10.207Z,41.50
2018-12-15T02:39:40.417Z,51.30
2018-12-15T02:42:10.501Z,48.47
2018-12-15T02:44:41.442Z,45.40
2018-12-15T02:47:11.377Z,46.20
2018-12-15T02:49:41.554Z,52.70
2018-12-15T02:52:12.098Z,50.43
2018-12-15T02:54:42.886Z,45.17
2018-12-15T02:57:13.702Z,49.00
2018-12-15T02:59:44.566Z,51.13
2018-12-15T03:02:14.777Z,53.30
2018-12-15T03:04:44.877Z,46.57
2018-12-15T03:07:14.991Z,47.03
2018-12-15T03:09:45.178Z,54.10
2018-12-15T03:12:15.261Z,54.20
2018-12-15T03:14:46.776Z,52.00
2018-12-15T03:17:17.945Z,57.63
2018-12-15T03:19:48.883Z,50.53
2018-12-15T03:22:19.596Z,51.23
2018-12-15T03:24:50.371Z,50.03
2018-12-15T03:27:20.469Z,51.20
2018-12-15T03:29:50.835Z,48.37
2018-12-15T03:32:21.047Z,50.77
2018-12-15T03:34:51.328Z,58.37
2018-12-15T03:37:21.531Z,53.97
2018-12-15T03:39:51.574Z,51.60
2018-12-15T03:42:22.671Z,52.13
2018-12-15T03:44:52.758Z,50.50
2018-12-15T03:47:24.050Z,56.77
2018-12-15T03:49:54.215Z,56.33
2018-12-15T03:52:25.573Z,52.83
2018-12-15T03:54:55.792Z,55.90
2018-12-15T03:57:25.877Z,56.40
2018-12-15T03:59:55.963Z,54.27
2018-12-15T04:02:26.871Z,52.73
2018-12-15T04:04:57.941Z,59.70
2018-12-15T04:07:28.032Z,52.33
2018-12-15T04:09:58.094Z,53.03
2018-12-15T04:12:28.305Z,59.73
2018-12-15T04:14:58.688Z,58.20
2018-12-15T04:17:29.327Z,59.10
2018-12-15T04:19:59.344Z,64.07
2018-12-15T04:22:29.427Z,55.63
2018-12-15T04:25:01.018Z,61.03
2018-12-15T04:27:31.054Z,59.70
2018-12-15T04:30:01.627Z,73.77
2018-12-15T04:32:31.785Z,62.87
2018-12-15T04:35:02.541Z,63.90
2018-12-15T04:37:32.570Z,58.37
2018-12-15T04:40:03.330Z,57.83
2018-12-15T04:42:33.230Z,65.23
2018-12-15T04:45:04.366Z,61.90
2018-12-15T04:47:34.580Z,63.63
2018-12-15T04:50:05.094Z,57.40
2018-12-15T04:52:35.171Z,73.87
2018-12-15T04:55:05.880Z,61.40
2018-12-15T04:57:36.510Z,62.57
2018-12-15T05:00:08.197Z,56.07
2018-12-15T05:02:43.811Z,58.90
2018-12-15T05:05:11.291Z,64.07
2018-12-15T05:07:41.415Z,59.07
2018-12-15T05:10:11.546Z,66.97
2018-12-15T05:12:41.673Z,63.77
2018-12-15T05:15:11.735Z,64.57
2018-12-15T05:17:41.690Z,61.40
2018-12-15T05:20:11.780Z,64.77
2018-12-15T05:22:41.906Z,59.40
2018-12-15T05:25:12.999Z,64.10
2018-12-15T05:27:44.039Z,75.60
2018-12-15T05:30:14.227Z,65.67
2018-12-15T05:32:44.203Z,62.83
2018-12-15T05:35:14.455Z,60.93
2018-12-15T05:37:45.151Z,67.77
2018-12-15T05:40:15.845Z,60.93
2018-12-15T05:42:46.115Z,58.63
2018-12-15T05:45:17.420Z,55.20
2018-12-15T05:47:47.556Z,58.13
2018-12-15T05:50:18.060Z,57.57
2018-12-15T05:52:48.967Z,68.17
2018-12-15T05:55:20.040Z,64.63
2018-12-15T05:57:50.231Z,59.60
2018-12-15T06:00:20.534Z,57.70
2018-12-15T06:02:50.833Z,57.83
2018-12-15T06:05:21.232Z,63.07
2018-12-15T06:07:54.539Z,61.40
2018-12-15T06:10:24.560Z,59.13
2018-12-15T06:12:54.552Z,56.10
2018-12-15T06:15:24.644Z,59.20
2018-12-15T06:17:54.688Z,54.83
2018-12-15T06:20:25.010Z,53.33
2018-12-15T06:22:55.126Z,60.90
2018-12-15T06:25:25.865Z,55.00
2018-12-15T06:27:55.936Z,60.20
2018-12-15T06:30:26.685Z,57.73
2018-12-15T06:32:57.262Z,63.03
2018-12-15T06:35:27.332Z,58.53
2018-12-15T06:37:57.442Z,53.70
2018-12-15T06:40:27.686Z,53.80
2018-12-15T06:42:57.985Z,56.90
2018-12-15T06:45:28.130Z,56.20
2018-12-15T06:47:58.098Z,66.77
2018-12-15T06:50:28.820Z,62.40
2018-12-15T06:52:59.111Z,51.70
2018-12-15T06:55:29.338Z,52.60
2018-12-15T06:57:59.958Z,50.07
2018-12-15T07:00:30.107Z,51.10
2018-12-15T07:03:00.810Z,48.03
2018-12-15T07:05:31.116Z,54.97
2018-12-15T07:08:01.253Z,53.67
2018-12-15T07:10:31.269Z,50.43
2018-12-15T07:13:01.325Z,61.13
2018-12-15T07:15:31.554Z,49.73
2018-12-15T07:18:02.769Z,56.93
2018-12-15T07:20:33.422Z,47.90
2018-12-15T07:23:04.136Z,49.63
2018-12-15T07:25:35.207Z,57.17
2018-12-15T07:28:06.498Z,42.53
2018-12-15T07:30:36.956Z,47.60
2018-12-15T07:33:07.123Z,49.47
2018-12-15T07:35:37.847Z,47.00
2018-12-15T07:38:08.003Z,48.93
2018-12-15T07:40:38.321Z,39.60
2018-12-15T07:43:08.393Z,44.40
2018-12-15T07:45:39.092Z,48.33
2018-12-15T07:48:09.223Z,55.10
2018-12-15T07:50:40.420Z,45.90
2018-12-15T07:53:10.526Z,49.13
2018-12-15T07:55:40.681Z,43.03
2018-12-15T07:58:10.913Z,46.17
2018-12-15T08:00:41.565Z,45.50
2018-12-15T08:03:11.721Z,42.10
2018-12-15T08:05:41.954Z,41.73
2018-12-15T08:08:12.194Z,38.57
2018-12-15T08:10:48.914Z,40.20
2018-12-15T08:13:32.932Z,39.60
2018-12-15T08:16:03.177Z,40.30
2018-12-15T08:18:36.470Z,45.10
2018-12-15T08:21:06.747Z,45.07
2018-12-15T08:23:37.318Z,39.83
2018-12-15T08:26:07.559Z,35.23
2018-12-15T08:28:38.221Z,45.23
2018-12-15T08:31:08.490Z,40.70
2018-12-15T08:33:38.737Z,37.73
2018-12-15T08:36:09.224Z,37.50
2018-12-15T08:38:39.495Z,50.70
2018-12-15T08:41:10.131Z,33.83
2018-12-15T08:43:40.282Z,40.43
2018-12-15T08:46:14.336Z,35.87
2018-12-15T08:48:45.091Z,36.80
2018-12-15T08:51:15.481Z,37.93
2018-12-15T08:53:46.870Z,39.93
2018-12-15T08:56:17.079Z,38.03
2018-12-15T08:58:47.875Z,35.53
2018-12-15T09:01:18.151Z,33.43
2018-12-15T09:03:49.004Z,41.23
2018-12-15T09:06:19.959Z,40.23
2018-12-15T09:08:51.808Z,38.10
2018-12-15T09:11:22.001Z,34.23
2018-12-15T09:13:52.775Z,35.63
2018-12-15T09:16:26.370Z,40.03
2018-12-15T09:18:55.080Z,40.20
2018-12-15T09:21:26.602Z,33.63
2018-12-15T09:23:56.451Z,36.70
2018-12-15T09:26:26.353Z,36.37
2018-12-15T09:28:56.220Z,32.23
2018-12-15T09:31:26.158Z,41.80
2018-12-15T09:33:56.925Z,34.63
2018-12-15T09:36:27.437Z,31.67
2018-12-15T09:38:59.588Z,33.80
2018-12-15T09:41:30.665Z,35.13
2018-12-15T09:44:00.629Z,30.33
2018-12-15T09:46:31.556Z,37.40
2018-12-15T09:49:02.806Z,28.40
2018-12-15T09:51:33.587Z,28.30
2018-12-15T09:54:03.781Z,33.10
2018-12-15T09:56:34.001Z,29.50
2018-12-15T09:59:04.631Z,35.77
2018-12-15T10:01:34.960Z,25.60
2018-12-15T10:04:05.881Z,31.20
2018-12-15T10:06:36.140Z,28.07
2018-12-15T10:09:07.777Z,31.20
2018-12-15T10:11:39.013Z,25.40
2018-12-15T10:14:09.654Z,29.10
2018-12-15T10:16:40.817Z,31.53
2018-12-15T10:19:10.842Z,25.47
2018-12-15T10:21:41.699Z,31.97
2018-12-15T10:24:11.823Z,30.13
2018-12-15T10:26:43.349Z,30.07
2018-12-15T10:29:18.443Z,30.00
2018-12-15T10:31:53.545Z,26.10
2018-12-15T10:34:23.651Z,34.03
2018-12-15T10:36:54.441Z,29.23
2018-12-15T10:39:24.693Z,32.97
2018-12-15T10:41:54.842Z,29.80
2018-12-15T10:44:25.357Z,24.83
2018-12-15T10:46:57.260Z,34.80
2018-12-15T10:49:30.830Z,32.40
2018-12-15T10:52:00.342Z,35.53
2018-12-15T10:54:30.403Z,36.50
2018-12-15T10:57:01.039Z,36.50
2018-12-15T10:59:31.039Z,32.53
2018-12-15T11:02:01.954Z,35.63
2018-12-15T11:04:32.101Z,33.27
2018-12-15T11:07:02.224Z,35.37
2018-12-15T11:09:32.358Z,33.73
2018-12-15T11:12:02.385Z,35.43
2018-12-15T11:14:32.419Z,37.00
2018-12-15T11:17:03.772Z,31.67
2018-12-15T11:19:37.176Z,33.27
2018-12-15T11:22:08.165Z,37.10
2018-12-15T11:24:39.235Z,38.73
2018-12-15T11:27:09.846Z,36.87
2018-12-15T11:29:40.195Z,35.83
2018-12-15T11:32:10.859Z,43.57
2018-12-15T11:34:40.754Z,34.33
2018-12-15T11:37:11.384Z,38.57
2018-12-15T11:39:41.642Z,41.53
2018-12-15T11:42:11.786Z,43.90
2018-12-15T11:44:42.485Z,42.63
2018-12-15T11:47:13.823Z,43.07
2018-12-15T11:49:43.918Z,46.23
2018-12-15T11:52:14.487Z,39.20
2018-12-15T11:54:45.133Z,38.50
2018-12-15T11:57:15.191Z,42.83
2018-12-15T11:59:47.030Z,45.30
2018-12-15T12:02:18.252Z,42.37
2018-12-15T12:04:48.905Z,41.10
2018-12-15T12:07:18.955Z,38.83
2018-12-15T12:09:48.988Z,41.77
2018-12-15T12:12:19.265Z,40.03
2018-12-15T12:14:50.133Z,38.03
2018-12-15T12:17:20.950Z,41.87
2018-12-15T12:19:50.939Z,62.13
2018-12-15T12:22:21.132Z,43.87
2018-12-15T12:24:51.377Z,44.00
2018-12-15T12:27:21.705Z,40.13
2018-12-15T12:29:51.766Z,39.73
2018-12-15T12:32:23.217Z,39.23
2018-12-15T12:34:53.872Z,37.40
2018-12-15T12:37:25.343Z,39.27
2018-12-15T12:39:56.310Z,38.77
2018-12-15T12:42:26.604Z,39.63
2018-12-15T12:44:56.602Z,41.57
2018-12-15T12:47:28.138Z,29.43
2018-12-15T12:49:58.696Z,26.60
2018-12-15T12:52:30.242Z,33.40
2018-12-15T12:55:01.495Z,31.80
2018-12-15T12:57:34.036Z,31.00
2018-12-15T13:00:04.538Z,39.80
2018-12-15T13:02:34.839Z,31.20
2018-12-15T13:05:05.977Z,37.40
2018-12-15T13:07:36.140Z,32.03
2018-12-15T13:10:06.692Z,29.50
2018-12-15T13:12:36.947Z,33.60
2018-12-15T13:15:07.706Z,30.10
2018-12-15T13:17:38.209Z,35.33
2018-12-15T13:20:08.840Z,30.80
2018-12-15T13:22:38.879Z,31.00
2018-12-15T13:25:09.810Z,30.50
2018-12-15T13:27:39.974Z,28.03
2018-12-15T13:30:11.774Z,31.83
2018-12-15T13:32:42.744Z,33.77
2018-12-15T13:35:12.846Z,28.40
2018-12-15T13:37:42.958Z,26.97
2018-12-15T13:40:13.153Z,32.60
2018-12-15T13:42:44.589Z,29.93
2018-12-15T13:45:14.741Z,32.57
2018-12-15T13:47:45.059Z,32.13
2018-12-15T13:50:14.981Z,28.57
2018-12-15T13:52:44.949Z,31.87
2018-12-15T13:55:14.856Z,29.20
2018-12-15T13:57:44.830Z,29.53
2018-12-15T14:00:14.717Z,28.70
2018-12-15T14:02:44.965Z,27.50
2018-12-15T14:05:15.598Z,31.20
2018-12-15T14:07:45.766Z,27.67
2018-12-15T14:10:15.880Z,27.00
2018-12-15T14:12:47.074Z,21.60
2018-12-15T14:15:17.223Z,22.47
2018-12-15T14:17:47.794Z,26.30
2018-12-15T14:20:18.060Z,22.70
2018-12-15T14:22:48.856Z,22.17
2018-12-15T14:25:18.825Z,21.33
2018-12-15T14:27:48.958Z,21.90
2018-12-15T14:30:20.519Z,24.57
2018-12-15T14:32:50.935Z,22.87
2018-12-15T14:35:20.877Z,24.97
2018-12-15T14:37:52.118Z,25.93
2018-12-15T14:40:22.274Z,19.23
2018-12-15T14:42:52.556Z,23.30
2018-12-15T14:45:23.331Z,21.30
2018-12-15T14:47:53.748Z,22.73
2018-12-15T14:50:24.364Z,20.10
2018-12-15T14:52:54.498Z,20.87
2018-12-15T14:55:25.080Z,20.67
2018-12-15T14:57:55.444Z,19.83
2018-12-15T15:00:27.118Z,20.67
2018-12-15T15:02:57.372Z,20.90
2018-12-15T15:05:27.613Z,20.07
2018-12-15T15:07:57.989Z,16.90
2018-12-15T15:10:28.214Z,23.30
2018-12-15T15:12:58.328Z,25.37
2018-12-15T15:15:28.537Z,24.60
2018-12-15T15:17:59.590Z,21.90
2018-12-15T15:20:30.297Z,21.57
2018-12-15T15:23:00.493Z,23.07
2018-12-15T15:25:31.098Z,20.97
2018-12-15T15:28:01.225Z,23.10
2018-12-15T15:30:31.394Z,24.33
2018-12-15T15:33:01.669Z,23.23
2018-12-15T15:35:31.911Z,22.60
2018-12-15T15:38:02.629Z,33.00
2018-12-15T15:40:32.767Z,25.93
2018-12-15T15:43:03.632Z,24.03
2018-12-15T15:45:33.769Z,28.33
2018-12-15T15:48:04.287Z,26.37
2018-12-15T15:50:36.633Z,28.83
2018-12-15T15:53:07.722Z,27.10
2018-12-15T15:55:38.440Z,31.07
2018-12-15T15:58:08.641Z,33.37
2018-12-15T16:00:39.417Z,35.23
2018-12-15T16:03:09.509Z,32.33
2018-12-15T16:05:40.264Z,36.27
2018-12-15T16:08:11.104Z,35.30
2018-12-15T16:10:41.277Z,42.00
2018-12-15T16:13:11.967Z,40.50
2018-12-15T16:15:42.621Z,32.80
2018-12-15T16:18:13.422Z,37.97
2018-12-15T16:20:43.714Z,35.63
2018-12-15T16:23:13.972Z,44.07
2018-12-15T16:25:44.198Z,41.80
2018-12-15T16:28:14.384Z,46.57
2018-12-15T16:30:45.162Z,41.03
2018-12-15T16:33:15.299Z,42.80
2018-12-15T16:35:46.055Z,44.10
2018-12-15T16:38:40.840Z,48.10
2018-12-15T16:41:11.375Z,43.37
2018-12-15T16:43:42.271Z,39.00
2018-12-15T16:46:12.411Z,48.40
2018-12-15T16:48:42.588Z,51.40
2018-12-15T16:51:13.701Z,43.57
2018-12-15T16:53:44.940Z,43.50
2018-12-15T16:56:15.035Z,42.07
2018-12-15T16:58:45.257Z,39.63
2018-12-15T17:01:15.595Z,43.90
2018-12-15T17:03:46.421Z,44.90
2018-12-15T17:06:17.071Z,43.43
2018-12-15T17:08:47.347Z,40.60
2018-12-15T17:11:17.944Z,38.70
2018-12-15T17:13:54.606Z,45.17
2018-12-15T17:16:24.728Z,37.23
2018-12-15T17:18:54.834Z,46.53
2018-12-15T17:21:24.917Z,40.83
2018-12-15T17:23:55.813Z,40.20
2018-12-15T17:26:25.957Z,38.57
2018-12-15T17:28:55.976Z,48.17
2018-12-15T17:31:26.776Z,42.40
2018-12-15T17:33:57.009Z,38.83
2018-12-15T17:36:27.256Z,38.00
2018-12-15T17:38:58.250Z,33.93
2018-12-15T17:41:28.521Z,58.27
2018-12-15T17:43:58.729Z,41.17
2018-12-15T17:46:28.903Z,38.93
2018-12-15T17:48:58.957Z,44.70
2018-12-15T17:51:29.060Z,40.63
2018-12-15T17:53:59.450Z,41.30
2018-12-15T17:56:29.587Z,41.93
2018-12-15T17:59:01.782Z,39.17
2018-12-15T18:01:31.878Z,38.57
2018-12-15T18:04:02.843Z,36.67
2018-12-15T18:06:33.052Z,44.67
2018-12-15T18:09:06.007Z,42.63
2018-12-15T18:11:36.200Z,42.90
2018-12-15T18:14:07.102Z,45.27
2018-12-15T18:16:37.262Z,44.73
2018-12-15T18:19:08.294Z,41.90
2018-12-15T18:21:38.395Z,43.10
2018-12-15T18:24:09.184Z,45.47
2018-12-15T18:26:39.307Z,44.20
2018-12-15T18:29:09.458Z,41.63
2018-12-15T18:31:39.654Z,35.60
2018-12-15T18:34:11.172Z,38.20
2018-12-15T18:36:41.402Z,38.00
2018-12-15T18:39:12.218Z,36.90
2018-12-15T18:41:42.336Z,31.80
2018-12-15T18:44:12.479Z,32.27
2018-12-15T18:46:42.740Z,33.50
2018-12-15T18:49:13.218Z,36.43
2018-12-15T18:51:43.778Z,37.00
2018-12-15T18:54:15.026Z,27.80
2018-12-15T18:56:45.687Z,36.70
2018-12-15T18:59:15.910Z,29.20
2018-12-15T19:01:46.765Z,31.37
2018-12-15T19:04:17.353Z,33.20
2018-12-15T19:06:47.317Z,33.87
2018-12-15T19:09:18.071Z,35.77
2018-12-15T19:11:48.389Z,37.03
2018-12-15T19:14:19.796Z,34.13
2018-12-15T19:16:50.366Z,33.60
2018-12-15T19:19:21.141Z,39.10
2018-12-15T19:21:51.170Z,38.50
2018-12-15T19:24:22.053Z,33.20
2018-12-15T19:26:52.433Z,38.93
2018-12-15T19:29:23.527Z,35.67
2018-12-15T19:31:54.364Z,38.50
2018-12-15T19:34:24.448Z,35.10
2018-12-15T19:36:54.711Z,37.60
2018-12-15T19:39:24.999Z,36.00
2018-12-15T19:41:55.911Z,29.27
2018-12-15T19:44:26.736Z,32.23
2018-12-15T19:46:56.775Z,31.53
2018-12-15T19:49:27.090Z,35.40
2018-12-15T19:51:57.265Z,30.07
2018-12-15T19:54:28.013Z,31.23
2018-12-15T19:56:58.295Z,37.97
2018-12-15T19:59:29.516Z,26.70
2018-12-15T20:01:59.621Z,31.70
2018-12-15T20:04:29.762Z,36.40
2018-12-15T20:07:00.095Z,35.10
2018-12-15T20:09:30.880Z,38.37
2018-12-15T20:12:01.040Z,31.90
2018-12-15T20:14:31.353Z,30.10
2018-12-15T20:17:02.344Z,33.13
2018-12-15T20:19:32.365Z,36.87
2018-12-15T20:22:02.497Z,34.50
2018-12-15T20:24:32.674Z,33.13
2018-12-15T20:27:03.483Z,28.53
2018-12-15T20:29:33.818Z,25.27
2018-12-15T20:32:04.130Z,29.83
2018-12-15T20:34:34.444Z,28.90
2018-12-15T20:37:04.702Z,39.90
2018-12-15T20:39:36.507Z,30.03
2018-12-15T20:42:07.195Z,36.27
2018-12-15T20:44:41.694Z,27.43
2018-12-15T20:47:11.176Z,33.60
2018-12-15T20:49:41.417Z,38.33
2018-12-15T20:52:12.242Z,33.67
2018-12-15T20:54:42.327Z,35.50
2018-12-15T20:57:13.118Z,27.97
2018-12-15T20:59:43.513Z,34.30
2018-12-15T21:02:13.644Z,32.60
2018-12-15T21:04:43.886Z,30.40
2018-12-15T21:07:13.977Z,33.87
2018-12-15T21:09:44.739Z,27.97
2018-12-15T21:12:14.947Z,25.30
2018-12-15T21:14:45.303Z,27.87
2018-12-15T21:17:15.427Z,36.63
2018-12-15T21:19:48.086Z,29.90
2018-12-15T21:22:17.695Z,29.57
2018-12-15T21:24:49.273Z,34.00
2018-12-15T21:27:19.878Z,25.87
2018-12-15T21:29:50.214Z,29.10
2018-12-15T21:32:20.488Z,24.47
2018-12-15T21:34:50.535Z,21.77
2018-12-15T21:37:20.704Z,23.20
2018-12-15T21:39:51.449Z,29.10
2018-12-15T21:42:21.545Z,29.73
2018-12-15T21:44:51.788Z,28.73
2018-12-15T21:47:22.514Z,40.07
2018-12-15T21:49:53.194Z,36.57
2018-12-15T21:52:23.197Z,36.67
2018-12-15T21:54:53.297Z,48.60
2018-12-15T21:57:23.338Z,45.83
2018-12-15T21:59:53.617Z,44.73
2018-12-15T22:02:24.616Z,48.03
2018-12-15T22:04:55.182Z,47.73
2018-12-15T22:07:25.982Z,44.20
2018-12-15T22:09:56.174Z,50.87
2018-12-15T22:12:26.947Z,52.80
2018-12-15T22:14:57.786Z,51.23
2018-12-15T22:17:27.909Z,43.97
2018-12-15T22:19:58.783Z,48.43
2018-12-15T22:22:28.753Z,45.00
2018-12-15T22:24:58.883Z,52.37
2018-12-15T22:27:29.054Z,46.73
2018-12-15T22:29:59.774Z,42.33
2018-12-15T22:32:29.954Z,42.50
2018-12-15T22:35:00.105Z,51.57
2018-12-15T22:37:30.209Z,51.53
2018-12-15T22:40:00.387Z,47.80
2018-12-15T22:42:30.599Z,45.13
2018-12-15T22:45:00.676Z,39.23
2018-12-15T22:47:31.522Z,49.93
2018-12-15T22:50:01.809Z,44.00
2018-12-15T22:52:32.586Z,53.97
2018-12-15T22:55:03.380Z,43.23
2018-12-15T22:57:34.578Z,41.63
2018-12-15T23:00:06.391Z,49.17
2018-12-15T23:02:37.221Z,43.83
2018-12-15T23:05:08.020Z,49.93
2018-12-15T23:07:38.793Z,52.93
2018-12-15T23:10:09.967Z,45.47
2018-12-15T23:12:40.780Z,43.17
2018-12-15T23:15:10.865Z,45.27
2018-12-15T23:17:41.008Z,56.83
2018-12-15T23:20:11.193Z,50.77
2018-12-15T23:22:41.976Z,55.63
2018-12-15T23:25:12.113Z,58.60
2018-12-15T23:27:42.406Z,46.90
2018-12-15T23:30:13.438Z,53.60
2018-12-15T23:32:43.489Z,47.80
2018-12-15T23:35:13.673Z,50.40
2018-12-15T23:37:43.956Z,50.43
2018-12-15T23:40:14.777Z,49.30
2018-12-15T23:42:46.245Z,51.67
2018-12-15T23:45:16.953Z,44.33
2018-12-15T23:47:47.664Z,47.37
2018-12-15T23:50:17.862Z,43.67
2018-12-15T23:52:48.640Z,43.50
2018-12-15T23:55:19.139Z,41.40
2018-12-15T23:57:49.561Z,46.60
